createdAt,value
2023-02-06T00:00:50.689Z,1039.49
2023-02-06T00:03:18.238Z,1039.62
2023-02-06T00:05:54.184Z,1039.59
2023-02-06T00:08:21.455Z,1039.62
2023-02-06T00:10:48.334Z,1039.60
2023-02-06T00:13:16.492Z,1039.46
2023-02-06T00:15:43.341Z,1039.60
2023-02-06T00:18:10.104Z,1039.67
2023-02-06T00:20:37.739Z,1039.85
2023-02-06T00:23:05.012Z,1039.81
2023-02-06T00:25:31.828Z,1039.87
2023-02-06T00:27:58.585Z,1039.97
2023-02-06T00:30:26.742Z,1039.98
2023-02-06T00:32:53.548Z,1040.03
2023-02-06T00:35:20.648Z,1039.97
2023-02-06T00:37:47.385Z,1039.97
2023-02-06T00:40:14.143Z,1040.03
2023-02-06T00:42:40.867Z,1039.94
2023-02-06T00:45:09.494Z,1039.99
2023-02-06T00:47:37.630Z,1039.99
2023-02-06T00:50:05.289Z,1040.10
2023-02-06T00:52:32.060Z,1040.15
2023-02-06T00:54:58.792Z,1040.16
2023-02-06T00:57:25.612Z,1040.19
2023-02-06T00:59:52.408Z,1040.21
2023-02-06T01:02:19.135Z,1040.19
2023-02-06T01:04:48.605Z,1040.24
2023-02-06T01:07:15.405Z,1040.22
2023-02-06T01:09:42.190Z,1040.19
2023-02-06T01:12:08.987Z,1040.22
2023-02-06T01:14:35.732Z,1040.18
2023-02-06T01:17:02.504Z,1040.17
2023-02-06T01:19:29.307Z,1040.30
2023-02-06T01:21:57.771Z,1040.36
2023-02-06T01:24:24.561Z,1040.40
2023-02-06T01:26:51.342Z,1040.41
2023-02-06T01:29:18.083Z,1040.38
2023-02-06T01:31:44.892Z,1040.43
2023-02-06T01:34:11.610Z,1040.38
2023-02-06T01:36:38.522Z,1040.36
2023-02-06T01:39:07.008Z,1040.42
2023-02-06T01:41:33.965Z,1040.51
2023-02-06T01:44:12.653Z,1040.55
2023-02-06T01:46:41.197Z,1040.63
2023-02-06T01:51:39.084Z,1040.59
2023-02-06T01:54:08.589Z,1040.67
2023-02-06T01:56:39.941Z,1040.58
2023-02-06T01:59:06.844Z,1040.66
2023-02-06T02:01:34.013Z,1040.62
2023-02-06T02:04:05.683Z,1040.59
2023-02-06T02:06:33.431Z,1040.64
2023-02-06T02:09:01.954Z,1040.59
2023-02-06T02:11:32.514Z,1040.50
2023-02-06T02:14:00.567Z,1040.69
2023-02-06T02:16:38.390Z,1040.67
2023-02-06T02:19:47.475Z,1040.54
2023-02-06T02:22:58.158Z,1040.64
2023-02-06T02:25:58.679Z,1040.53
2023-02-06T02:29:09.635Z,1040.58
2023-02-06T02:32:11.422Z,1040.58
2023-02-06T02:35:10.759Z,1040.56
2023-02-06T02:37:49.426Z,1040.59
2023-02-06T02:40:25.174Z,1040.51
2023-02-06T02:43:01.587Z,1040.57
2023-02-06T02:45:33.894Z,1040.64
2023-02-06T02:48:06.901Z,1040.63
2023-02-06T02:50:37.298Z,1040.52
2023-02-06T02:53:04.287Z,1040.52
2023-02-06T02:55:31.083Z,1040.63
2023-02-06T02:58:03.618Z,1040.50
2023-02-06T03:00:33.267Z,1040.51
2023-02-06T03:03:00.104Z,1040.58
2023-02-06T03:05:27.787Z,1040.58
2023-02-06T03:08:10.893Z,1040.58
2023-02-06T03:10:45.661Z,1040.73
2023-02-06T03:13:17.592Z,1040.67
2023-02-06T03:15:49.489Z,1040.68
2023-02-06T03:18:19.818Z,1040.69
2023-02-06T03:20:48.304Z,1040.67
2023-02-06T03:23:20.171Z,1040.72
2023-02-06T03:25:50.809Z,1040.69
2023-02-06T03:28:22.553Z,1040.74
2023-02-06T03:30:52.350Z,1040.69
2023-02-06T03:33:22.860Z,1040.89
2023-02-06T03:35:49.772Z,1040.89
2023-02-06T03:38:18.284Z,1040.85
2023-02-06T03:40:48.852Z,1040.97
2023-02-06T03:43:17.896Z,1040.96
2023-02-06T03:45:48.790Z,1040.93
2023-02-06T03:48:21.546Z,1040.91
2023-02-06T03:50:51.631Z,1040.85
2023-02-06T03:53:22.847Z,1040.86
2023-02-06T03:55:52.312Z,1041.08
2023-02-06T03:58:19.131Z,1041.06
2023-02-06T04:00:48.064Z,1041.05
2023-02-06T04:03:15.419Z,1041.00
2023-02-06T04:05:42.276Z,1041.03
2023-02-06T04:08:09.985Z,1040.85
2023-02-06T04:10:38.100Z,1040.77
2023-02-06T04:13:04.929Z,1040.96
2023-02-06T04:15:31.639Z,1040.93
2023-02-06T04:18:01.105Z,1040.88
2023-02-06T04:20:28.992Z,1040.87
2023-02-06T04:22:55.906Z,1040.80
2023-02-06T04:25:22.711Z,1040.86
2023-02-06T04:27:51.258Z,1040.96
2023-02-06T04:30:18.432Z,1041.07
2023-02-06T04:32:45.384Z,1041.01
2023-02-06T04:35:12.372Z,1041.13
2023-02-06T04:37:39.187Z,1041.12
2023-02-06T04:40:07.083Z,1041.22
2023-02-06T04:42:33.839Z,1041.30
2023-02-06T04:45:01.981Z,1041.31
2023-02-06T04:47:28.707Z,1041.34
2023-02-06T04:49:55.514Z,1041.40
2023-02-06T04:52:22.241Z,1041.48
2023-02-06T04:54:48.974Z,1041.57
2023-02-06T04:57:15.724Z,1041.52
2023-02-06T04:59:42.474Z,1041.55
2023-02-06T05:02:10.565Z,1041.59
2023-02-06T05:04:38.388Z,1041.51
2023-02-06T05:07:05.676Z,1041.51
2023-02-06T05:09:32.526Z,1041.41
2023-02-06T05:11:59.445Z,1041.48
2023-02-06T05:14:26.514Z,1041.68
2023-02-06T05:16:53.234Z,1041.80
2023-02-06T05:19:21.509Z,1041.61
2023-02-06T05:21:48.224Z,1041.70
2023-02-06T05:24:14.940Z,1041.59
2023-02-06T05:26:41.831Z,1041.69
2023-02-06T05:29:08.712Z,1041.58
2023-02-06T05:31:35.740Z,1041.70
2023-02-06T05:34:02.612Z,1041.73
2023-02-06T05:36:30.783Z,1041.67
2023-02-06T05:38:57.634Z,1041.70
2023-02-06T05:41:24.491Z,1041.75
2023-02-06T05:43:51.237Z,1041.87
2023-02-06T05:46:18.076Z,1041.90
2023-02-06T05:48:44.919Z,1041.93
2023-02-06T05:51:11.839Z,1041.91
2023-02-06T05:53:40.099Z,1041.89
2023-02-06T05:56:07.189Z,1041.81
2023-02-06T05:58:34.266Z,1041.86
2023-02-06T06:01:01.100Z,1041.88
2023-02-06T06:03:27.932Z,1041.89
2023-02-06T06:05:54.891Z,1041.85
2023-02-06T06:08:22.553Z,1041.89
2023-02-06T06:10:52.016Z,1042.00
2023-02-06T06:13:19.207Z,1042.05
2023-02-06T06:15:46.110Z,1042.04
2023-02-06T06:18:12.927Z,1041.98
2023-02-06T06:20:39.695Z,1041.99
2023-02-06T06:23:06.616Z,1041.98
2023-02-06T06:25:35.268Z,1041.99
2023-02-06T06:28:06.197Z,1041.88
2023-02-06T06:30:35.425Z,1041.84
2023-02-06T06:33:02.500Z,1041.89
2023-02-06T06:35:29.508Z,1041.90
2023-02-06T06:37:56.253Z,1041.95
2023-02-06T06:40:23.220Z,1042.04
2023-02-06T06:42:50.112Z,1041.96
2023-02-06T06:45:18.378Z,1041.99
2023-02-06T06:47:45.291Z,1042.05
2023-02-06T06:50:12.057Z,1041.98
2023-02-06T06:52:38.894Z,1041.84
2023-02-06T06:55:06.383Z,1041.84
2023-02-06T06:57:34.357Z,1041.83
2023-02-06T07:00:01.100Z,1041.98
2023-02-06T07:02:29.274Z,1042.04
2023-02-06T07:04:56.084Z,1042.19
2023-02-06T07:07:22.961Z,1042.15
2023-02-06T07:09:49.792Z,1042.04
2023-02-06T07:12:16.632Z,1042.02
2023-02-06T07:14:43.344Z,1041.88
2023-02-06T07:17:11.395Z,1041.92
2023-02-06T07:19:39.639Z,1041.86
2023-02-06T07:22:06.527Z,1041.73
2023-02-06T07:24:33.319Z,1041.67
2023-02-06T07:27:00.079Z,1041.60
2023-02-06T07:29:26.874Z,1041.68
2023-02-06T07:31:53.693Z,1041.55
2023-02-06T07:34:20.538Z,1041.51
2023-02-06T07:36:48.657Z,1041.47
2023-02-06T07:39:15.412Z,1041.31
2023-02-06T07:41:42.189Z,1041.43
2023-02-06T07:44:10.422Z,1041.22
2023-02-06T07:46:37.397Z,1041.18
2023-02-06T07:49:04.205Z,1041.20
2023-02-06T07:51:31.429Z,1041.15
2023-02-06T07:53:59.824Z,1040.99
2023-02-06T07:56:26.691Z,1040.95
2023-02-06T07:58:54.726Z,1040.82
2023-02-06T08:01:22.493Z,1040.64
2023-02-06T08:03:49.788Z,1040.40
2023-02-06T08:06:17.432Z,1040.32
2023-02-06T08:08:45.131Z,1040.21
2023-02-06T08:11:18.198Z,1040.10
2023-02-06T08:13:46.147Z,1039.99
2023-02-06T08:16:16.240Z,1039.76
2023-02-06T08:18:43.391Z,1039.62
2023-02-06T08:21:12.826Z,1039.49
2023-02-06T08:23:39.756Z,1039.40
2023-02-06T08:26:08.963Z,1039.46
2023-02-06T08:28:37.824Z,1039.35
2023-02-06T08:31:09.892Z,1039.30
2023-02-06T08:33:36.784Z,1039.19
2023-02-06T08:36:04.628Z,1039.30
2023-02-06T08:38:31.333Z,1039.22
2023-02-06T08:40:58.112Z,1039.18
2023-02-06T08:43:24.900Z,1039.37
2023-02-06T08:45:54.317Z,1039.27
2023-02-06T08:48:21.045Z,1039.32
2023-02-06T08:50:47.886Z,1039.28
2023-02-06T08:53:14.611Z,1039.15
2023-02-06T08:55:41.754Z,1039.03
2023-02-06T08:58:08.887Z,1038.82
2023-02-06T09:00:35.634Z,1038.95
2023-02-06T09:03:04.700Z,1038.93
2023-02-06T09:05:31.836Z,1038.98
2023-02-06T09:07:58.591Z,1039.02
2023-02-06T09:10:27.795Z,1038.82
2023-02-06T09:12:57.301Z,1038.70
2023-02-06T09:15:24.178Z,1038.71
2023-02-06T09:17:51.077Z,1038.61
2023-02-06T09:20:19.473Z,1038.64
2023-02-06T09:22:46.351Z,1038.60
2023-02-06T09:25:13.107Z,1038.51
2023-02-06T09:27:39.922Z,1038.50
2023-02-06T09:30:07.587Z,1038.38
2023-02-06T09:32:34.307Z,1038.42
2023-02-06T09:35:01.125Z,1038.34
2023-02-06T09:37:29.698Z,1038.36
2023-02-06T09:39:57.938Z,1038.46
2023-02-06T09:42:31.837Z,1038.44
2023-02-06T09:45:05.820Z,1038.55
2023-02-06T09:47:33.484Z,1038.53
2023-02-06T09:50:02.924Z,1038.57
2023-02-06T09:52:42.601Z,1038.60
2023-02-06T09:55:16.356Z,1038.53
2023-02-06T09:57:49.731Z,1038.56
2023-02-06T10:00:31.361Z,1038.62
2023-02-06T10:03:16.653Z,1038.68
2023-02-06T10:05:49.789Z,1038.66
2023-02-06T10:08:22.828Z,1038.64
2023-02-06T10:10:53.335Z,1038.64
2023-02-06T10:13:25.427Z,1038.63
2023-02-06T10:15:56.124Z,1038.64
2023-02-06T10:18:28.334Z,1038.58
2023-02-06T10:21:00.777Z,1038.53
2023-02-06T10:23:36.194Z,1038.50
2023-02-06T10:26:07.604Z,1038.64
2023-02-06T10:28:34.632Z,1038.63
2023-02-06T10:31:13.237Z,1038.56
2023-02-06T10:33:50.051Z,1038.53
2023-02-06T10:36:34.206Z,1038.42
2023-02-06T10:39:29.549Z,1038.42
2023-02-06T10:42:05.381Z,1038.26
2023-02-06T10:44:37.463Z,1038.08
2023-02-06T10:47:22.820Z,1038.02
2023-02-06T10:49:56.951Z,1037.92
2023-02-06T10:52:27.341Z,1037.83
2023-02-06T10:54:58.982Z,1037.76
2023-02-06T10:57:28.125Z,1037.59
2023-02-06T10:59:59.805Z,1037.44
2023-02-06T11:02:32.882Z,1037.33
2023-02-06T11:05:07.052Z,1037.22
2023-02-06T11:07:36.615Z,1037.21
2023-02-06T11:10:05.837Z,1037.16
2023-02-06T11:12:36.426Z,1037.13
2023-02-06T11:15:09.052Z,1037.13
2023-02-06T11:17:36.076Z,1036.94
2023-02-06T11:20:17.048Z,1036.95
2023-02-06T11:22:52.413Z,1036.66
2023-02-06T11:25:27.211Z,1036.52
2023-02-06T11:27:54.969Z,1036.35
2023-02-06T11:30:29.592Z,1036.03
2023-02-06T11:33:04.576Z,1035.88
2023-02-06T11:35:35.291Z,1036.03
2023-02-06T11:38:13.709Z,1035.80
2023-02-06T11:40:42.368Z,1035.67
2023-02-06T11:43:19.307Z,1035.57
2023-02-06T11:45:47.116Z,1035.50
2023-02-06T11:48:33.784Z,1035.50
2023-02-06T11:51:01.026Z,1035.40
2023-02-06T11:53:28.003Z,1035.28
2023-02-06T11:56:02.671Z,1035.24
2023-02-06T11:58:30.476Z,1035.17
2023-02-06T12:01:00.800Z,1035.19
2023-02-06T12:03:39.208Z,1035.08
2023-02-06T12:06:13.108Z,1035.13
2023-02-06T12:08:46.625Z,1035.10
2023-02-06T12:11:22.168Z,1035.13
2023-02-06T12:13:53.079Z,1035.17
2023-02-06T12:16:22.877Z,1035.24
2023-02-06T12:18:53.342Z,1035.24
2023-02-06T12:21:25.436Z,1035.11
2023-02-06T12:23:55.597Z,1035.17
2023-02-06T12:26:27.306Z,1035.22
2023-02-06T12:28:58.478Z,1035.16
2023-02-06T12:31:31.840Z,1035.12
2023-02-06T12:34:10.520Z,1035.05
2023-02-06T12:36:44.102Z,1034.99
2023-02-06T12:39:18.038Z,1034.95
2023-02-06T12:42:00.941Z,1034.94
2023-02-06T12:44:33.742Z,1034.91
2023-02-06T12:47:07.445Z,1034.84
2023-02-06T12:49:44.868Z,1034.90
2023-02-06T12:52:17.902Z,1034.94
2023-02-06T12:54:49.562Z,1034.89
2023-02-06T12:57:22.459Z,1034.97
2023-02-06T13:00:03.846Z,1034.89
2023-02-06T13:03:02.477Z,1034.91
2023-02-06T13:05:33.943Z,1034.82
2023-02-06T13:08:07.136Z,1034.78
2023-02-06T13:10:35.205Z,1034.88
2023-02-06T13:13:03.885Z,1034.77
2023-02-06T13:15:35.754Z,1034.76
2023-02-06T13:18:02.919Z,1034.78
2023-02-06T13:20:31.366Z,1034.75
2023-02-06T13:23:22.865Z,1034.72
2023-02-06T13:25:50.191Z,1034.66
2023-02-06T13:28:56.870Z,1034.61
2023-02-06T13:31:31.315Z,1034.73
2023-02-06T13:34:01.693Z,1034.74
2023-02-06T13:36:44.572Z,1034.72
2023-02-06T13:39:23.176Z,1034.69
2023-02-06T13:41:53.378Z,1034.75
2023-02-06T13:44:26.530Z,1034.74
2023-02-06T13:47:47.972Z,1034.73
2023-02-06T13:50:33.839Z,1034.85
2023-02-06T13:53:14.813Z,1034.83
2023-02-06T13:56:00.381Z,1034.86
2023-02-06T13:58:38.642Z,1034.85
2023-02-06T14:01:14.277Z,1034.80
2023-02-06T14:03:45.824Z,1034.79
2023-02-06T14:06:37.264Z,1034.78
2023-02-06T14:09:16.605Z,1034.83
2023-02-06T14:11:57.285Z,1034.78
2023-02-06T14:14:38.745Z,1034.76
2023-02-06T14:17:16.802Z,1034.79
2023-02-06T14:19:52.363Z,1034.78
2023-02-06T14:22:31.639Z,1034.75
2023-02-06T14:25:11.853Z,1034.75
2023-02-06T14:27:58.578Z,1034.81
2023-02-06T14:30:36.286Z,1034.79
2023-02-06T14:33:18.556Z,1034.79
2023-02-06T14:36:06.345Z,1034.76
2023-02-06T14:39:15.361Z,1034.77
2023-02-06T14:41:42.225Z,1034.77
2023-02-06T14:44:13.115Z,1034.77
2023-02-06T14:46:43.037Z,1034.73
2023-02-06T14:49:16.895Z,1034.66
2023-02-06T14:51:49.469Z,1034.74
2023-02-06T14:54:29.655Z,1034.88
2023-02-06T14:56:57.316Z,1035.01
2023-02-06T14:59:24.375Z,1035.06
2023-02-06T15:01:54.344Z,1035.06
2023-02-06T15:04:23.820Z,1035.18
2023-02-06T15:06:54.184Z,1035.10
2023-02-06T15:09:26.656Z,1035.25
2023-02-06T15:11:55.191Z,1035.35
2023-02-06T15:14:25.043Z,1035.42
2023-02-06T15:16:52.504Z,1035.55
2023-02-06T15:19:21.630Z,1035.67
2023-02-06T15:21:49.368Z,1035.72
2023-02-06T15:24:32.398Z,1035.71
2023-02-06T15:27:07.933Z,1035.79
2023-02-06T15:29:35.650Z,1035.82
2023-02-06T15:32:05.764Z,1035.89
2023-02-06T15:34:32.675Z,1035.93
2023-02-06T15:36:59.600Z,1036.00
2023-02-06T15:39:28.189Z,1036.21
2023-02-06T15:41:55.387Z,1036.44
2023-02-06T15:44:31.448Z,1036.36
2023-02-06T15:47:00.558Z,1036.19
2023-02-06T15:49:35.408Z,1036.31
2023-02-06T15:52:03.140Z,1036.45
2023-02-06T15:54:31.788Z,1036.46
2023-02-06T15:57:02.844Z,1036.52
2023-02-06T15:59:33.243Z,1036.50
2023-02-06T16:02:01.238Z,1036.60
2023-02-06T16:04:30.905Z,1036.55
2023-02-06T16:07:05.664Z,1036.53
2023-02-06T16:09:39.574Z,1036.67
2023-02-06T16:12:07.005Z,1036.66
2023-02-06T16:14:35.676Z,1036.70
2023-02-06T16:17:06.088Z,1036.72
2023-02-06T16:19:45.596Z,1036.76
2023-02-06T16:22:23.948Z,1036.90
2023-02-06T16:24:54.329Z,1037.18
2023-02-06T16:27:23.646Z,1037.31
2023-02-06T16:29:53.029Z,1037.27
2023-02-06T16:32:24.530Z,1037.23
2023-02-06T16:34:52.210Z,1037.35
2023-02-06T16:37:21.312Z,1037.44
2023-02-06T16:39:48.205Z,1037.47
2023-02-06T16:42:18.888Z,1037.51
2023-02-06T16:44:49.679Z,1037.52
2023-02-06T16:47:19.633Z,1037.75
2023-02-06T16:49:47.100Z,1037.70
2023-02-06T16:52:20.276Z,1037.57
2023-02-06T16:54:48.134Z,1037.73
2023-02-06T16:57:25.053Z,1037.76
2023-02-06T16:59:51.935Z,1037.96
2023-02-06T17:02:18.728Z,1037.99
2023-02-06T17:04:45.584Z,1038.06
2023-02-06T17:07:14.070Z,1038.07
2023-02-06T17:09:41.918Z,1038.18
2023-02-06T17:12:12.851Z,1038.18
2023-02-06T17:14:41.935Z,1038.15
2023-02-06T17:17:11.303Z,1038.14
2023-02-06T17:19:38.432Z,1038.32
2023-02-06T17:22:05.491Z,1038.25
2023-02-06T17:24:32.402Z,1038.33
2023-02-06T17:26:59.194Z,1038.22
2023-02-06T17:29:25.939Z,1038.28
2023-02-06T17:31:54.094Z,1038.30
2023-02-06T17:34:20.865Z,1038.34
2023-02-06T17:36:47.596Z,1038.47
2023-02-06T17:39:14.516Z,1038.37
2023-02-06T17:41:41.296Z,1038.44
2023-02-06T17:44:08.017Z,1038.50
2023-02-06T17:46:34.850Z,1038.52
2023-02-06T17:49:03.024Z,1038.67
2023-02-06T17:51:29.783Z,1038.70
2023-02-06T17:53:56.545Z,1038.63
2023-02-06T17:56:23.299Z,1038.67
2023-02-06T17:58:50.149Z,1038.77
2023-02-06T18:01:19.381Z,1038.88
2023-02-06T18:03:47.901Z,1038.91
2023-02-06T18:06:16.587Z,1038.99
2023-02-06T18:08:43.699Z,1039.13
2023-02-06T18:11:11.458Z,1039.28
2023-02-06T18:13:38.402Z,1039.27
2023-02-06T18:16:06.023Z,1039.26
2023-02-06T18:18:33.668Z,1039.29
2023-02-06T18:21:00.733Z,1039.36
2023-02-06T18:23:28.931Z,1039.21
2023-02-06T18:26:01.464Z,1039.28
2023-02-06T18:28:28.394Z,1039.31
2023-02-06T18:30:55.214Z,1039.33
2023-02-06T18:33:22.010Z,1039.36
2023-02-06T18:35:48.819Z,1039.39
2023-02-06T18:38:16.113Z,1039.36
2023-02-06T18:40:44.691Z,1039.48
2023-02-06T18:43:12.490Z,1039.53
2023-02-06T18:45:40.172Z,1039.51
2023-02-06T18:48:09.256Z,1039.45
2023-02-06T18:50:39.848Z,1039.66
2023-02-06T18:53:06.897Z,1039.71
2023-02-06T18:55:34.396Z,1039.88
2023-02-06T18:58:02.734Z,1039.97
2023-02-06T19:00:29.562Z,1039.97
2023-02-06T19:02:58.126Z,1039.96
2023-02-06T19:05:25.000Z,1039.89
2023-02-06T19:07:53.112Z,1039.98
2023-02-06T19:10:20.978Z,1040.00
2023-02-06T19:12:47.864Z,1040.08
2023-02-06T19:15:16.457Z,1040.14
2023-02-06T19:17:43.291Z,1040.02
2023-02-06T19:20:11.610Z,1040.02
2023-02-06T19:22:39.068Z,1040.05
2023-02-06T19:25:10.631Z,1040.14
2023-02-06T19:27:38.332Z,1040.18
2023-02-06T19:30:06.225Z,1040.21
2023-02-06T19:32:34.911Z,1040.18
2023-02-06T19:35:02.037Z,1040.10
2023-02-06T19:37:28.872Z,1040.23
2023-02-06T19:39:55.610Z,1040.32
2023-02-06T19:42:22.506Z,1040.41
2023-02-06T19:44:51.970Z,1040.53
2023-02-06T19:47:18.808Z,1040.45
2023-02-06T19:49:49.542Z,1040.61
2023-02-06T19:52:16.271Z,1040.71
2023-02-06T19:54:42.990Z,1040.76
2023-02-06T19:57:09.750Z,1040.77
2023-02-06T19:59:36.474Z,1040.95
2023-02-06T20:02:03.317Z,1041.03
2023-02-06T20:04:32.302Z,1041.15
2023-02-06T20:07:01.230Z,1041.23
2023-02-06T20:09:29.181Z,1041.39
2023-02-06T20:11:56.954Z,1041.24
2023-02-06T20:14:24.379Z,1041.23
2023-02-06T20:16:52.601Z,1041.39
2023-02-06T20:19:22.249Z,1041.42
2023-02-06T20:21:51.977Z,1041.44
2023-02-06T20:24:21.885Z,1041.45
2023-02-06T20:26:50.532Z,1041.64
2023-02-06T20:29:20.436Z,1041.76
2023-02-06T20:31:47.918Z,1041.85
2023-02-06T20:34:14.910Z,1041.87
2023-02-06T20:36:42.104Z,1041.86
2023-02-06T20:39:11.335Z,1041.99
2023-02-06T20:41:40.219Z,1041.99
2023-02-06T20:44:08.174Z,1042.03
2023-02-06T20:46:36.626Z,1042.15
2023-02-06T20:49:05.974Z,1042.22
2023-02-06T20:51:32.779Z,1042.32
2023-02-06T20:53:59.519Z,1042.41
2023-02-06T20:56:27.145Z,1042.33
2023-02-06T20:58:55.423Z,1042.33
2023-02-06T21:01:23.904Z,1042.23
2023-02-06T21:03:55.500Z,1042.28
2023-02-06T21:06:22.702Z,1042.34
2023-02-06T21:08:50.307Z,1042.52
2023-02-06T21:11:18.617Z,1042.49
2023-02-06T21:13:45.383Z,1042.57
2023-02-06T21:16:13.752Z,1042.68
2023-02-06T21:18:40.678Z,1042.71
2023-02-06T21:21:09.816Z,1042.62
2023-02-06T21:23:37.130Z,1042.53
2023-02-06T21:26:05.666Z,1042.69
2023-02-06T21:28:34.280Z,1042.60
2023-02-06T21:31:03.586Z,1042.46
2023-02-06T21:33:32.068Z,1042.61
2023-02-06T21:36:00.832Z,1042.61
2023-02-06T21:38:27.738Z,1042.52
2023-02-06T21:40:54.578Z,1042.44
2023-02-06T21:43:21.336Z,1042.42
2023-02-06T21:45:48.382Z,1042.37
2023-02-06T21:48:15.253Z,1042.62
2023-02-06T21:50:43.544Z,1042.54
2023-02-06T21:53:10.612Z,1042.49
2023-02-06T21:55:41.911Z,1042.51
2023-02-06T21:58:09.173Z,1042.51
2023-02-06T22:00:36.429Z,1042.58
2023-02-06T22:03:03.791Z,1042.76
2023-02-06T22:05:30.600Z,1042.89
2023-02-06T22:07:58.758Z,1042.85
2023-02-06T22:10:25.732Z,1042.88
2023-02-06T22:12:52.967Z,1042.97
2023-02-06T22:15:20.072Z,1042.97
2023-02-06T22:17:46.986Z,1043.04
2023-02-06T22:20:16.418Z,1043.00
2023-02-06T22:22:43.303Z,1043.11
2023-02-06T22:25:11.575Z,1043.13
2023-02-06T22:27:38.540Z,1043.14
2023-02-06T22:30:06.222Z,1043.19
2023-02-06T22:32:36.125Z,1043.24
2023-02-06T22:35:04.152Z,1043.33
2023-02-06T22:37:31.444Z,1043.42
2023-02-06T22:39:58.193Z,1043.37
2023-02-06T22:42:29.023Z,1043.35
2023-02-06T22:44:55.882Z,1043.46
2023-02-06T22:47:22.719Z,1043.42
2023-02-06T22:49:50.840Z,1043.47
2023-02-06T22:52:17.684Z,1043.55
2023-02-06T22:54:44.497Z,1043.65
2023-02-06T22:57:11.373Z,1043.74
2023-02-06T22:59:39.767Z,1043.76
2023-02-06T23:02:06.509Z,1043.77
2023-02-06T23:04:33.476Z,1043.84
2023-02-06T23:07:00.368Z,1043.78
2023-02-06T23:09:29.642Z,1043.87
2023-02-06T23:11:57.409Z,1043.93
2023-02-06T23:14:24.768Z,1044.03
2023-02-06T23:16:52.963Z,1044.00
2023-02-06T23:19:20.287Z,1044.07
2023-02-06T23:21:49.434Z,1044.16
2023-02-06T23:24:17.010Z,1044.21
2023-02-06T23:26:46.351Z,1044.30
2023-02-06T23:29:15.052Z,1044.34
2023-02-06T23:31:42.233Z,1044.44
2023-02-06T23:34:10.423Z,1044.53
2023-02-06T23:36:37.767Z,1044.47
2023-02-06T23:39:05.178Z,1044.45
2023-02-06T23:41:33.478Z,1044.46
2023-02-06T23:44:02.138Z,1044.55
2023-02-06T23:46:31.208Z,1044.53
2023-02-06T23:48:58.445Z,1044.68
2023-02-06T23:51:28.403Z,1044.62
2023-02-06T23:53:55.188Z,1044.72
2023-02-06T23:56:24.085Z,1044.75
2023-02-06T23:58:52.489Z,1044.72
